Time;durP1;ratioP1;P1;durP2;ratioP2;P2;SDS_P1;SDS_P2;PMS_P1;PMS_P2;Temp;Humidity;BMP_temperature;BMP_pressure;BME280_temperature;BME280_humidity;BME280_pressure;Samples;Min_cycle;Max_cycle;Signal;HPM_P1;HPM_P2
2022/08/05 00:02:23;;;;;;;1.15;0.50;;;;;;;18.70;91.11;101579.59;5074689;28;20489;-71
2022/08/05 00:04:48;;;;;;;1.20;0.85;;;;;;;18.65;93.19;101579.34;5075628;28;20086;-71
2022/08/05 00:07:14;;;;;;;1.10;0.60;;;;;;;18.61;93.36;101564.66;5075860;28;20477;-71
2022/08/05 00:09:39;;;;;;;1.00;0.63;;;;;;;18.65;90.48;101555.28;5078714;28;20020;-71
2022/08/05 00:12:05;;;;;;;0.52;0.43;;;;;;;18.70;90.64;101555.53;5073192;28;20020;-71
2022/08/05 00:14:31;;;;;;;0.85;0.45;;;;;;;18.75;89.48;101558.50;5073315;28;20093;-71
2022/08/05 00:16:56;;;;;;;2.53;0.70;;;;;;;18.78;89.31;101557.31;5074383;28;20029;-71
2022/08/05 00:19:22;;;;;;;0.82;0.47;;;;;;;18.69;88.57;101536.00;5076059;28;20028;-71
2022/08/05 00:21:47;;;;;;;3.70;1.02;;;;;;;18.79;89.42;101541.09;5075256;28;20033;-71
2022/08/05 00:24:13;;;;;;;1.30;0.50;;;;;;;18.83;89.96;101530.84;5074466;28;20341;-71
2022/08/05 00:26:38;;;;;;;3.00;0.75;;;;;;;18.77;89.51;101523.53;5075588;28;20025;-71
2022/08/05 00:29:03;;;;;;;1.70;0.68;;;;;;;18.73;89.31;101515.06;5074321;28;20048;-71
2022/08/05 00:31:29;;;;;;;2.67;0.70;;;;;;;18.84;88.76;101532.50;5070318;28;20025;-71
2022/08/05 00:33:54;;;;;;;0.52;0.43;;;;;;;18.84;89.24;101527.16;5074564;28;20457;-71
2022/08/05 00:36:21;;;;;;;1.75;1.40;;;;;;;18.81;88.42;101528.34;5075136;28;20464;-71
2022/08/05 00:38:46;;;;;;;1.83;0.60;;;;;;;18.77;89.17;101513.69;5074230;28;20096;-71
2022/08/05 00:41:12;;;;;;;1.42;0.82;;;;;;;18.77;90.40;101513.69;5073460;28;21165;-71
2022/08/05 00:43:37;;;;;;;2.10;0.60;;;;;;;18.75;90.26;101506.84;5076685;28;20055;-71
2022/08/05 00:46:03;;;;;;;0.80;0.60;;;;;;;18.74;89.64;101500.66;5074250;28;20036;-71
2022/08/05 00:48:28;;;;;;;1.20;0.70;;;;;;;18.74;88.40;101498.00;5071132;28;20024;-71
2022/08/05 00:50:53;;;;;;;1.17;0.65;;;;;;;18.69;88.58;101489.72;5077660;28;20024;-71
2022/08/05 00:53:21;;;;;;;1.55;1.15;;;;;;;18.57;90.67;101467.97;5074386;28;20438;-71
2022/08/05 00:55:47;;;;;;;2.55;0.90;;;;;;;18.57;91.19;101477.84;5075675;28;20020;-71
2022/08/05 00:58:15;;;;;;;3.10;0.75;;;;;;;18.55;90.00;101502.06;5073472;28;20074;-71
2022/08/05 01:00:42;;;;;;;3.08;0.73;;;;;;;18.42;90.70;101484.06;5072941;28;20056;-71
2022/08/05 01:03:08;;;;;;;2.97;0.63;;;;;;;18.48;92.53;101502.00;5073376;28;20047;-71
2022/08/05 01:05:34;;;;;;;1.23;0.73;;;;;;;18.35;91.58;101490.31;5072580;28;20078;-71
2022/08/05 01:07:59;;;;;;;0.75;0.55;;;;;;;18.43;90.72;101495.56;5077031;28;20032;-72
2022/08/05 01:10:34;;;;;;;1.45;0.88;;;;;;;18.40;90.56;101507.47;5074999;28;20062;-71
2022/08/05 01:13:05;;;;;;;2.63;0.70;;;;;;;18.38;90.05;101516.66;5071084;28;20039;-71
2022/08/05 01:15:38;;;;;;;1.48;0.50;;;;;;;18.39;90.79;101527.16;5072687;28;20032;-71
2022/08/05 01:18:08;;;;;;;2.25;0.80;;;;;;;18.41;90.63;101532.34;5077542;28;20060;-71
2022/08/05 01:20:57;;;;;;;3.25;0.77;;;;;;;18.35;90.57;101506.34;5071010;28;20024;-71
2022/08/05 01:24:00;;;;;;;2.65;0.90;;;;;;;18.44;90.37;101532.81;5072288;28;20028;-71
2022/08/05 01:26:51;;;;;;;2.00;0.60;;;;;;;18.47;91.45;101542.28;5074350;28;20027;-71
2022/08/05 01:29:23;;;;;;;1.52;0.68;;;;;;;18.37;92.75;101542.56;5073207;28;20138;-71
2022/08/05 01:31:56;;;;;;;2.38;0.55;;;;;;;18.41;91.54;101543.84;5073113;28;20028;-71
2022/08/05 01:34:34;;;;;;;2.88;0.93;;;;;;;18.43;89.24;101541.81;5076536;28;20462;-71
2022/08/05 01:37:14;;;;;;;2.03;0.80;;;;;;;18.44;89.42;101543.50;5077597;28;20020;-71
2022/08/05 01:39:44;;;;;;;2.03;1.20;;;;;;;18.46;90.78;101559.31;5073576;28;20524;-71
2022/08/05 01:42:13;;;;;;;0.77;0.50;;;;;;;18.46;88.63;101562.81;5072666;28;20035;-71
2022/08/05 01:44:39;;;;;;;2.47;0.50;;;;;;;18.47;87.99;101553.81;5073654;28;20027;-71
2022/08/05 01:47:06;;;;;;;3.15;0.90;;;;;;;18.48;88.85;101547.44;5073309;28;20032;-71
2022/08/05 01:49:33;;;;;;;1.25;0.80;;;;;;;18.48;89.43;101551.97;5073273;28;20047;-71
2022/08/05 01:52:02;;;;;;;1.55;0.95;;;;;;;18.49;89.42;101550.97;5074716;28;20060;-71
2022/08/05 01:54:38;;;;;;;0.82;0.60;;;;;;;18.49;87.99;101551.78;5073118;28;20062;-71
2022/08/05 01:57:05;;;;;;;1.13;0.60;;;;;;;18.48;89.23;101549.28;5074043;28;20028;-71
2022/08/05 01:59:33;;;;;;;0.95;0.60;;;;;;;18.45;88.52;101531.78;5072471;28;20024;-72
2022/08/05 02:02:00;;;;;;;0.95;0.65;;;;;;;18.46;89.88;101519.25;5067954;28;20061;-72
2022/08/05 02:04:27;;;;;;;5.63;0.90;;;;;;;18.42;90.05;101524.16;5075031;28;20722;-71
2022/08/05 02:06:54;;;;;;;1.77;0.60;;;;;;;18.38;90.95;101543.38;5072774;28;20110;-71
2022/08/05 02:09:19;;;;;;;1.58;0.75;;;;;;;18.28;89.18;101527.63;5076481;28;20077;-71
2022/08/05 02:11:59;;;;;;;1.33;0.60;;;;;;;18.37;89.10;101526.53;5073100;28;20051;-71
2022/08/05 02:14:32;;;;;;;0.80;0.60;;;;;;;18.39;90.21;101534.38;5075158;28;20031;-71
2022/08/05 02:17:05;;;;;;;2.28;0.82;;;;;;;18.32;89.70;101544.97;5077216;28;20461;-71
2022/08/05 02:19:40;;;;;;;0.60;0.50;;;;;;;18.22;91.31;101529.19;5072075;28;20026;-71
2022/08/05 02:22:17;;;;;;;2.90;0.90;;;;;;;18.33;90.96;101522.56;5069447;28;20055;-71
2022/08/05 02:24:48;;;;;;;2.80;0.70;;;;;;;18.32;90.49;101528.09;5072936;28;20019;-71
2022/08/05 02:27:15;;;;;;;2.70;0.70;;;;;;;18.21;90.84;101521.38;5075250;28;20254;-71
2022/08/05 02:29:43;;;;;;;1.20;0.70;;;;;;;18.18;90.57;101517.25;5071439;28;20045;-71
2022/08/05 02:32:10;;;;;;;2.17;0.80;;;;;;;18.23;92.00;101520.19;5073004;28;20125;-71
2022/08/05 02:34:36;;;;;;;1.63;1.17;;;;;;;18.21;91.39;101521.38;5076833;28;20417;-71
2022/08/05 02:37:04;;;;;;;3.58;0.52;;;;;;;18.20;91.37;101520.53;5073743;28;20374;-71
2022/08/05 02:39:34;;;;;;;0.80;0.47;;;;;;;18.06;90.85;101506.16;5071543;28;20540;-71
2022/08/05 02:42:02;;;;;;;1.10;0.85;;;;;;;18.14;90.68;101521.28;5073433;28;20028;-71
2022/08/05 02:44:30;;;;;;;0.95;0.63;;;;;;;18.15;90.10;101509.56;5071455;28;20463;-71
2022/08/05 02:46:57;;;;;;;4.32;0.52;;;;;;;18.21;91.07;101532.06;5074704;28;20016;-71
2022/08/05 02:49:24;;;;;;;1.77;0.70;;;;;;;18.17;90.69;101530.78;5071125;28;20604;-71
2022/08/05 02:51:51;;;;;;;0.65;0.50;;;;;;;18.20;91.53;101541.91;5076716;28;20528;-71
2022/08/05 02:54:17;;;;;;;1.77;0.90;;;;;;;18.09;90.27;101529.00;5072133;28;20419;-71
2022/08/05 02:56:43;;;;;;;1.35;0.70;;;;;;;18.18;90.89;101541.28;5074274;28;20099;-71
2022/08/05 02:59:10;;;;;;;1.33;0.50;;;;;;;18.19;89.49;101564.28;5071993;28;20112;-71
2022/08/05 03:01:39;;;;;;;1.40;0.63;;;;;;;18.20;88.38;101557.94;5072022;28;20452;-71
2022/08/05 03:04:08;;;;;;;1.48;0.60;;;;;;;18.20;89.08;101544.56;5074517;28;20012;-71
2022/08/05 03:06:34;;;;;;;4.53;1.63;;;;;;;18.16;88.82;101537.09;5068753;28;20024;-71
2022/08/05 03:09:00;;;;;;;0.77;0.52;;;;;;;18.14;90.19;101526.63;5078407;28;20020;-71
2022/08/05 03:11:27;;;;;;;1.40;0.70;;;;;;;18.22;89.28;101544.41;5068966;28;20043;-71
2022/08/05 03:13:52;;;;;;;0.73;0.50;;;;;;;18.21;89.86;101564.13;5073682;28;20491;-71
2022/08/05 03:16:19;;;;;;;2.60;1.00;;;;;;;18.19;89.48;101556.28;5073717;28;20035;-72
2022/08/05 03:18:45;;;;;;;1.98;0.82;;;;;;;18.18;90.56;101551.97;5074586;28;20062;-71
2022/08/05 03:21:10;;;;;;;2.60;0.65;;;;;;;18.12;89.32;101554.50;5076622;28;20060;-71
2022/08/05 03:23:38;;;;;;;1.15;0.50;;;;;;;18.17;89.51;101573.50;5072503;28;20024;-71
2022/08/05 03:26:04;;;;;;;1.33;0.90;;;;;;;18.19;88.80;101576.84;5069980;28;20024;-71
2022/08/05 03:28:30;;;;;;;3.15;1.05;;;;;;;18.21;89.28;101572.13;5065517;28;20048;-71
2022/08/05 03:30:58;;;;;;;3.63;0.95;;;;;;;18.15;90.64;101567.53;5082171;28;20042;-71
2022/08/05 03:33:24;;;;;;;2.05;0.77;;;;;;;18.18;91.07;101578.69;5077950;28;20012;-71
2022/08/05 03:35:50;;;;;;;0.80;0.40;;;;;;;18.16;90.45;101571.84;5077061;28;20039;-71
2022/08/05 03:38:16;;;;;;;1.85;0.50;;;;;;;18.18;90.82;101567.16;5077927;28;20029;-71
2022/08/05 03:40:44;;;;;;;5.20;2.17;;;;;;;18.11;90.75;101558.22;5075876;28;20025;-71
2022/08/05 03:43:09;;;;;;;0.98;0.80;;;;;;;18.08;89.70;101548.72;5070969;28;20392;-71
2022/08/05 03:45:34;;;;;;;1.05;0.70;;;;;;;18.16;88.94;101559.34;5074125;28;20243;-71
2022/08/05 03:48:00;;;;;;;3.08;0.95;;;;;;;18.17;90.42;101550.28;5078598;28;20020;-71
2022/08/05 03:50:42;;;;;;;1.20;0.65;;;;;;;18.15;90.40;101549.63;5075145;28;20103;-71
2022/08/05 03:53:12;;;;;;;1.02;0.52;;;;;;;18.15;89.67;101552.31;5075495;28;20037;-71
2022/08/05 03:55:44;;;;;;;0.85;0.57;;;;;;;18.13;90.36;101546.31;5074226;28;20024;-71
2022/08/05 03:58:12;;;;;;;1.42;0.63;;;;;;;18.01;90.75;101537.13;5083462;28;20024;-71
2022/08/05 04:00:39;;;;;;;1.00;0.80;;;;;;;18.11;90.77;101552.88;5075156;28;20032;-71
2022/08/05 04:03:06;;;;;;;1.13;0.70;;;;;;;18.07;93.25;101558.59;5075061;28;20036;-71
2022/08/05 04:05:33;;;;;;;4.82;2.00;;;;;;;18.09;93.06;101556.56;5078327;28;20032;-71
2022/08/05 04:08:04;;;;;;;3.28;0.85;;;;;;;18.11;93.91;101553.69;5078103;28;20058;-71
2022/08/05 04:10:31;;;;;;;0.75;0.60;;;;;;;18.09;92.52;101553.88;5074006;28;20447;-71
2022/08/05 04:12:57;;;;;;;1.70;0.88;;;;;;;17.94;91.94;101525.47;5078658;28;20032;-71
2022/08/05 04:15:22;;;;;;;2.45;1.02;;;;;;;18.05;93.60;101544.59;5076217;28;20408;-71
2022/08/05 04:17:48;;;;;;;1.30;0.80;;;;;;;17.92;96.35;101539.03;5078995;28;20488;-71
2022/08/05 04:20:18;;;;;;;0.90;0.70;;;;;;;17.88;96.38;101533.22;5076257;28;20017;-71
2022/08/05 04:22:44;;;;;;;1.10;0.80;;;;;;;17.89;95.41;101529.53;5078467;28;20026;-71
2022/08/05 04:25:09;;;;;;;1.25;0.70;;;;;;;17.88;96.37;101527.06;5076740;28;20029;-71
2022/08/05 04:27:35;;;;;;;3.47;0.93;;;;;;;17.86;96.41;101531.75;5074389;28;20051;-71
2022/08/05 04:30:00;;;;;;;4.03;1.08;;;;;;;17.79;96.91;101541.44;5077231;28;20071;-71
2022/08/05 04:32:26;;;;;;;1.25;1.13;;;;;;;17.76;97.45;101541.81;5077690;28;20016;-71
2022/08/05 04:34:51;;;;;;;1.65;0.80;;;;;;;17.72;98.12;101549.34;5074515;28;20188;-71
2022/08/05 04:37:16;;;;;;;4.10;1.13;;;;;;;17.74;97.43;101546.50;5073850;28;20123;-71
2022/08/05 04:39:42;;;;;;;1.67;1.20;;;;;;;17.79;95.60;101552.13;5061818;28;20028;-71
2022/08/05 04:42:07;;;;;;;2.15;1.10;;;;;;;17.79;96.79;101542.28;5075500;28;20028;-71
2022/08/05 04:44:33;;;;;;;3.13;1.70;;;;;;;17.81;97.06;101553.63;5080417;28;20024;-71
2022/08/05 04:46:58;;;;;;;1.02;0.93;;;;;;;17.80;98.26;101559.13;5079585;28;20079;-71
2022/08/05 04:49:24;;;;;;;1.80;1.10;;;;;;;17.66;95.26;101540.22;5068054;28;20021;-71
2022/08/05 04:51:49;;;;;;;2.67;1.10;;;;;;;17.71;93.71;101539.69;5080442;28;20244;-71
2022/08/05 04:54:14;;;;;;;1.60;0.98;;;;;;;17.88;94.37;101559.91;5053798;28;20052;-71
2022/08/05 04:56:40;;;;;;;0.85;0.70;;;;;;;17.90;94.07;101565.09;5084701;28;20035;-71
2022/08/05 04:59:06;;;;;;;3.35;1.10;;;;;;;17.91;94.95;101561.41;5076821;28;20323;-71
2022/08/05 05:01:31;;;;;;;1.27;0.95;;;;;;;17.93;95.42;101558.56;5077162;28;20023;-72
2022/08/05 05:03:57;;;;;;;1.92;1.27;;;;;;;17.98;94.10;101565.00;5079285;28;20039;-70
2022/08/05 05:06:22;;;;;;;2.00;1.00;;;;;;;18.04;93.29;101561.59;5073216;28;20067;-70
2022/08/05 05:08:47;;;;;;;1.30;0.98;;;;;;;18.10;94.17;101568.06;5081000;28;20020;-71
2022/08/05 05:11:13;;;;;;;1.40;0.95;;;;;;;18.13;94.30;101574.88;5059198;28;20038;-70
2022/08/05 05:13:38;;;;;;;2.13;1.40;;;;;;;18.17;92.76;101565.50;5060428;28;20107;-70
2022/08/05 05:16:04;;;;;;;2.42;1.13;;;;;;;18.24;91.70;101575.25;5055897;28;20059;-70
2022/08/05 05:18:29;;;;;;;2.17;1.20;;;;;;;18.30;92.62;101577.19;5068055;28;20021;-70
2022/08/05 05:20:54;;;;;;;1.40;0.88;;;;;;;18.37;92.82;101585.31;5071124;28;20035;-70
2022/08/05 05:23:20;;;;;;;1.65;1.08;;;;;;;18.38;92.40;101578.13;5074977;28;20032;-70
2022/08/05 05:25:45;;;;;;;4.38;1.30;;;;;;;18.47;92.38;101590.41;5075051;28;20028;-70
2022/08/05 05:28:11;;;;;;;1.40;1.23;;;;;;;18.45;92.94;101587.09;5057603;28;20102;-70
2022/08/05 05:30:37;;;;;;;2.00;1.33;;;;;;;18.46;93.59;101586.88;5077036;28;20072;-70
2022/08/05 05:33:04;;;;;;;1.75;1.10;;;;;;;18.48;93.09;101586.69;5066914;28;20052;-70
2022/08/05 05:35:31;;;;;;;7.18;1.45;;;;;;;18.48;92.93;101581.34;5076350;28;20024;-70
2022/08/05 05:37:59;;;;;;;1.52;1.20;;;;;;;18.45;94.91;101582.56;5075343;28;20361;-71
2022/08/05 05:40:26;;;;;;;1.63;1.23;;;;;;;18.45;94.50;101585.22;5075637;28;20028;-71
2022/08/05 05:42:52;;;;;;;1.95;1.23;;;;;;;18.41;93.45;101575.91;5081181;28;20043;-71
2022/08/05 05:45:17;;;;;;;2.28;1.10;;;;;;;18.46;93.15;101584.19;5078543;28;20036;-71
2022/08/05 05:47:43;;;;;;;1.17;0.95;;;;;;;18.46;92.56;101578.84;5074820;28;20057;-70
2022/08/05 05:50:11;;;;;;;2.72;1.13;;;;;;;18.44;91.35;101569.38;5074502;28;20561;-71
2022/08/05 05:52:36;;;;;;;1.40;0.85;;;;;;;18.50;91.64;101568.63;5074488;28;20479;-70
2022/08/05 05:55:04;;;;;;;1.60;1.30;;;;;;;18.52;90.74;101579.97;5075264;28;20093;-70
2022/08/05 05:57:29;;;;;;;1.10;0.88;;;;;;;18.45;90.12;101579.06;5077940;28;20032;-70
2022/08/05 05:59:55;;;;;;;0.95;0.60;;;;;;;18.49;90.02;101583.84;5081659;28;20035;-70
2022/08/05 06:02:20;;;;;;;2.33;1.13;;;;;;;18.49;90.16;101573.16;5079910;28;20036;-71
2022/08/05 06:04:46;;;;;;;1.05;0.88;;;;;;;18.49;89.70;101570.50;5070876;28;20047;-70
2022/08/05 06:07:11;;;;;;;2.10;1.02;;;;;;;18.54;89.89;101563.75;5073531;28;20400;-71
2022/08/05 06:09:36;;;;;;;1.65;1.20;;;;;;;18.58;89.98;101554.38;5081933;28;20109;-71
2022/08/05 06:12:02;;;;;;;1.55;0.95;;;;;;;18.64;90.40;101553.59;5059287;28;20032;-71
2022/08/05 06:14:28;;;;;;;1.50;0.90;;;;;;;18.62;90.23;101564.50;5073580;28;20032;-71
2022/08/05 06:16:54;;;;;;;4.22;1.02;;;;;;;18.69;88.80;101551.22;5067120;28;20038;-72
2022/08/05 06:19:19;;;;;;;1.50;0.90;;;;;;;18.88;88.88;101563.22;5078270;28;20343;-71
2022/08/05 06:21:45;;;;;;;1.80;0.93;;;;;;;19.14;87.64;101570.72;5075436;28;20124;-70
2022/08/05 06:24:10;;;;;;;1.67;0.70;;;;;;;19.27;85.92;101554.78;5077382;28;20480;-71
2022/08/05 06:26:36;;;;;;;2.08;1.02;;;;;;;19.61;85.22;101574.66;5082542;28;20021;-70
2022/08/05 06:29:01;;;;;;;1.90;1.25;;;;;;;19.89;85.38;101569.38;5065859;28;20094;-70
2022/08/05 06:31:27;;;;;;;4.38;1.10;;;;;;;20.06;85.02;101575.28;5077405;28;20033;-71
2022/08/05 06:33:52;;;;;;;1.52;0.60;;;;;;;20.15;83.45;101549.16;5079354;28;20032;-71
2022/08/05 06:36:17;;;;;;;1.77;0.50;;;;;;;20.41;80.99;101571.81;5078473;28;20111;-71
2022/08/05 06:38:43;;;;;;;1.08;0.60;;;;;;;20.44;81.39;101571.41;5072220;28;20024;-70
2022/08/05 06:41:08;;;;;;;0.80;0.60;;;;;;;20.64;80.57;101576.88;5079621;28;20446;-72
2022/08/05 06:43:35;;;;;;;0.75;0.63;;;;;;;20.82;79.67;101579.88;5077330;28;20463;-70
2022/08/05 06:46:00;;;;;;;1.10;0.65;;;;;;;20.81;78.84;101583.56;5049796;28;20392;-70
2022/08/05 06:48:26;;;;;;;1.25;0.40;;;;;;;20.74;79.19;101585.41;5080688;28;20086;-72
2022/08/05 06:50:51;;;;;;;0.45;0.40;;;;;;;20.83;79.22;101588.75;5074719;28;20454;-71
2022/08/05 06:53:16;;;;;;;1.95;0.63;;;;;;;20.95;79.32;101571.88;5080342;28;20126;-71
2022/08/05 06:55:42;;;;;;;0.90;0.50;;;;;;;21.48;79.87;101591.88;5080444;28;20241;-71
2022/08/05 06:58:08;;;;;;;2.58;0.60;;;;;;;22.49;78.42;101594.31;5075687;28;20036;-71
2022/08/05 07:00:33;;;;;;;1.63;0.52;;;;;;;23.43;72.64;101589.38;5055129;28;20038;-71
2022/08/05 07:02:59;;;;;;;2.97;0.38;;;;;;;23.03;71.03;101592.28;5073965;28;20084;-71
2022/08/05 07:05:25;;;;;;;1.05;0.70;;;;;;;23.02;72.22;101595.19;5035531;28;20035;-72
2022/08/05 07:07:50;;;;;;;1.13;0.82;;;;;;;23.51;71.43;101593.66;5076940;28;20430;-71
2022/08/05 07:10:16;;;;;;;1.77;0.55;;;;;;;24.55;68.55;101600.25;5075910;28;20028;-71
2022/08/05 07:18:09;;;;;;;0.60;0.32;;;;;;;25.98;63.78;101607.84;5078080;28;20056;-70
2022/08/05 07:20:34;;;;;;;0.98;0.40;;;;;;;26.90;59.22;101620.72;5079551;28;20032;-70
2022/08/05 07:22:59;;;;;;;1.17;0.15;;;;;;;27.56;58.71;101621.16;5081447;28;20484;-70
2022/08/05 07:25:25;;;;;;;3.53;0.70;;;;;;;27.54;56.94;101619.75;5071417;28;20071;-70
2022/08/05 07:27:52;;;;;;;0.80;0.35;;;;;;;25.74;59.56;101617.78;5083077;28;20108;-70
2022/08/05 07:30:17;;;;;;;0.38;0.28;;;;;;;25.41;61.45;101614.56;5078036;28;20058;-70
2022/08/05 07:32:43;;;;;;;1.42;0.43;;;;;;;26.01;60.58;101610.09;5081427;28;20047;-70
2022/08/05 07:35:12;;;;;;;0.82;0.20;;;;;;;26.47;59.27;101616.53;5079215;28;20327;-70
2022/08/05 07:37:38;;;;;;;2.85;0.32;;;;;;;26.93;58.42;101603.16;5076601;28;20051;-72
2022/08/05 07:40:06;;;;;;;0.85;0.40;;;;;;;27.72;58.42;101610.56;5081214;28;20664;-72
2022/08/05 07:42:32;;;;;;;2.13;0.80;;;;;;;28.65;53.60;101614.41;5078812;28;20020;-71
2022/08/05 07:44:58;;;;;;;0.40;0.20;;;;;;;28.60;54.68;101614.34;5076281;28;20118;-70
2022/08/05 07:47:23;;;;;;;0.90;0.43;;;;;;;28.18;55.33;101620.28;5079244;28;20124;-70
2022/08/05 07:49:51;;;;;;;0.40;0.30;;;;;;;27.46;54.38;101610.97;5073070;28;20055;-70
2022/08/05 07:52:17;;;;;;;0.25;0.20;;;;;;;26.70;56.65;101606.75;5080590;28;20024;-70
2022/08/05 07:54:42;;;;;;;0.28;0.20;;;;;;;26.42;57.72;101600.19;5073920;28;20036;-70
2022/08/05 07:57:08;;;;;;;1.67;0.30;;;;;;;25.88;59.57;101596.78;5065881;28;20420;-70
2022/08/05 07:59:33;;;;;;;1.10;0.55;;;;;;;25.64;59.93;101605.66;5061694;28;20136;-72
2022/08/05 08:02:00;;;;;;;1.48;0.35;;;;;;;25.43;61.05;101601.63;5071261;28;20029;-70
2022/08/05 08:04:25;;;;;;;1.15;0.30;;;;;;;25.44;61.78;101597.06;5066284;28;20040;-70
2022/08/05 08:06:51;;;;;;;0.52;0.30;;;;;;;26.56;59.39;101604.31;5077313;28;20516;-72
2022/08/05 08:09:16;;;;;;;0.57;0.57;;;;;;;28.12;55.97;101607.69;5077974;28;20054;-71
2022/08/05 08:11:41;;;;;;;1.25;0.40;;;;;;;29.56;53.05;101612.13;5077584;28;20055;-70
2022/08/05 08:14:07;;;;;;;1.30;0.40;;;;;;;30.58;49.78;101609.31;5077216;28;20029;-70
2022/08/05 08:16:32;;;;;;;0.40;0.17;;;;;;;31.33;49.54;101615.22;5067711;28;20028;-71
2022/08/05 08:18:57;;;;;;;0.60;0.20;;;;;;;30.39;48.62;101608.94;5078949;28;20040;-71
2022/08/05 08:21:23;;;;;;;0.75;0.20;;;;;;;30.05;49.83;101609.25;5080573;28;20016;-71
2022/08/05 08:23:49;;;;;;;1.05;0.55;;;;;;;29.39;49.74;101604.91;5072863;28;20431;-70
2022/08/05 08:26:14;;;;;;;2.22;0.40;;;;;;;29.25;51.29;101618.09;5082019;28;20119;-71
2022/08/05 08:28:39;;;;;;;1.33;0.32;;;;;;;30.03;50.46;101605.97;5071101;28;20045;-71
2022/08/05 08:31:05;;;;;;;0.75;0.40;;;;;;;30.57;46.79;101605.72;5078232;28;20031;-71
2022/08/05 08:33:30;;;;;;;1.30;0.47;;;;;;;30.97;48.47;101604.28;5079763;28;20024;-71
2022/08/05 08:35:56;;;;;;;0.60;0.22;;;;;;;30.66;49.44;101608.75;5078648;28;20028;-71
2022/08/05 08:38:21;;;;;;;0.75;0.22;;;;;;;31.11;48.61;101618.19;5073360;28;20035;-71
2022/08/05 08:40:48;;;;;;;1.80;0.30;;;;;;;31.24;48.46;101619.59;5053932;28;20471;-71
2022/08/05 08:43:15;;;;;;;1.30;0.32;;;;;;;30.75;46.87;101623.53;5075211;28;20033;-71
2022/08/05 08:45:43;;;;;;;1.13;0.17;;;;;;;28.99;51.54;101619.69;5075134;28;20021;-71
2022/08/05 08:48:10;;;;;;;0.70;0.30;;;;;;;30.14;51.92;101627.56;5080062;28;20039;-71
2022/08/05 08:50:40;;;;;;;1.63;0.25;;;;;;;31.54;49.87;101633.28;5078203;28;20055;-71
2022/08/05 08:53:06;;;;;;;0.50;0.10;;;;;;;32.55;46.67;101627.97;5078753;28;20079;-71
2022/08/05 08:55:33;;;;;;;1.58;0.30;;;;;;;33.74;44.57;101625.38;5076984;28;20044;-71
2022/08/05 08:58:02;;;;;;;0.10;0.10;;;;;;;32.76;45.74;101628.69;5076578;28;20106;-71
2022/08/05 09:00:28;;;;;;;1.80;0.32;;;;;;;33.63;44.94;101635.59;5059765;28;20119;-71
2022/08/05 09:02:55;;;;;;;0.32;0.20;;;;;;;33.39;44.86;101630.00;5074655;28;20090;-72
2022/08/05 09:05:21;;;;;;;0.98;0.40;;;;;;;32.52;46.35;101638.63;5072448;28;20111;-72
2022/08/05 09:07:46;;;;;;;2.33;0.40;;;;;;;31.85;46.80;101636.00;5075589;28;20033;-72
2022/08/05 09:10:12;;;;;;;0.70;0.45;;;;;;;32.52;47.39;101635.88;5068017;28;20591;-72
2022/08/05 09:12:38;;;;;;;0.35;0.20;;;;;;;32.44;45.73;101631.00;5078370;28;20671;-72
2022/08/05 09:15:05;;;;;;;1.13;0.20;;;;;;;32.89;44.68;101631.94;5078081;28;20388;-71
2022/08/05 09:17:31;;;;;;;1.00;0.20;;;;;;;32.32;45.02;101634.06;5076898;28;20028;-71
2022/08/05 09:20:00;;;;;;;1.13;0.20;;;;;;;31.47;46.24;101640.94;5077288;28;20028;-71
2022/08/05 09:22:26;;;;;;;0.47;0.28;;;;;;;30.43;47.95;101634.56;5073697;28;20089;-71
2022/08/05 09:25:01;;;;;;;2.70;0.40;;;;;;;30.55;48.31;101643.31;5071096;28;20376;-72
2022/08/05 09:27:33;;;;;;;1.40;0.47;;;;;;;31.27;49.42;101636.25;5076254;28;20395;-71
2022/08/05 09:29:58;;;;;;;0.68;0.22;;;;;;;32.73;45.85;101644.84;5073509;28;20119;-73
2022/08/05 09:32:34;;;;;;;0.95;0.25;;;;;;;33.25;43.88;101651.69;5077732;28;20123;-72
2022/08/05 09:35:15;;;;;;;1.58;0.30;;;;;;;34.29;42.84;101647.81;5075976;28;20048;-72
2022/08/05 09:37:52;;;;;;;0.50;0.20;;;;;;;32.66;44.34;101645.13;5072444;28;20549;-72
2022/08/05 09:40:39;;;;;;;0.43;0.20;;;;;;;33.69;43.72;101656.34;5073790;28;20278;-72
2022/08/05 09:43:06;;;;;;;1.25;0.40;;;;;;;34.79;42.22;101650.28;5073988;28;20196;-72
2022/08/05 09:45:36;;;;;;;0.90;0.30;;;;;;;35.32;40.12;101646.53;5070885;28;20099;-72
2022/08/05 09:48:24;;;;;;;1.23;0.30;;;;;;;35.41;40.62;101655.72;5071117;28;20028;-72
2022/08/05 09:50:54;;;;;;;1.85;0.32;;;;;;;33.47;42.45;101662.22;5076074;28;20504;-72
2022/08/05 09:53:20;;;;;;;0.50;0.20;;;;;;;34.24;41.34;101658.84;5077910;28;20118;-72
2022/08/05 09:55:45;;;;;;;1.65;0.30;;;;;;;34.89;40.06;101665.78;5069212;28;20449;-72
2022/08/05 09:58:12;;;;;;;0.10;0.08;;;;;;;34.54;39.99;101665.09;5076621;28;20299;-72
2022/08/05 10:00:38;;;;;;;0.22;0.10;;;;;;;34.23;40.65;101665.41;5074218;28;20036;-72
2022/08/05 10:03:10;;;;;;;1.55;0.38;;;;;;;33.46;41.13;101674.25;5074373;28;20036;-72
2022/08/05 10:05:36;;;;;;;0.57;0.30;;;;;;;32.99;41.52;101670.97;5075053;28;20519;-72
2022/08/05 10:08:05;;;;;;;0.47;0.10;;;;;;;32.23;43.04;101661.13;5071561;28;20044;-72
2022/08/05 10:10:45;;;;;;;0.30;0.20;;;;;;;33.41;39.95;101674.31;5073782;28;20480;-71
2022/08/05 10:13:11;;;;;;;0.10;0.00;;;;;;;34.34;40.23;101664.22;5073147;28;20556;-71
2022/08/05 10:15:38;;;;;;;1.15;0.32;;;;;;;33.72;40.05;101685.88;5069884;28;20021;-71
2022/08/05 10:18:15;;;;;;;0.95;0.40;;;;;;;32.50;41.15;101670.88;5076434;28;20082;-71
2022/08/05 10:20:51;;;;;;;0.35;0.20;;;;;;;33.18;40.09;101673.06;5073240;28;20097;-71
2022/08/05 10:23:20;;;;;;;0.20;0.10;;;;;;;33.50;38.24;101680.81;5075016;28;20032;-71
2022/08/05 10:25:46;;;;;;;0.73;0.10;;;;;;;33.93;37.10;101678.31;5078645;28;20027;-71
2022/08/05 10:28:11;;;;;;;0.45;0.17;;;;;;;34.63;37.91;101665.31;5070710;28;20041;-71
2022/08/05 10:30:37;;;;;;;0.15;0.10;;;;;;;35.19;37.56;101676.34;5073668;28;20147;-71
2022/08/05 10:33:04;;;;;;;0.50;0.10;;;;;;;35.94;36.01;101671.06;5074825;28;20032;-71
2022/08/05 10:35:31;;;;;;;0.32;0.20;;;;;;;35.89;35.31;101668.38;5071762;28;20028;-71
2022/08/05 10:37:59;;;;;;;0.90;0.22;;;;;;;36.25;32.86;101671.31;5074924;28;20509;-72
2022/08/05 10:40:30;;;;;;;0.65;0.20;;;;;;;36.73;32.57;101698.44;5072091;28;20035;-71
2022/08/05 10:43:07;;;;;;;0.85;0.10;;;;;;;36.90;33.33;101688.75;5069673;28;20115;-71
2022/08/05 10:45:34;;;;;;;0.52;0.20;;;;;;;36.52;33.85;101691.69;5071280;28;20020;-71
2022/08/05 10:48:30;;;;;;;2.92;0.10;;;;;;;36.00;34.57;101695.38;5077056;28;20028;-71
2022/08/05 10:50:58;;;;;;;0.52;0.17;;;;;;;36.90;34.33;101691.50;5071848;28;20062;-71
2022/08/05 10:53:39;;;;;;;0.38;0.10;;;;;;;36.80;33.36;101696.09;5073817;28;20471;-71
2022/08/05 10:56:16;;;;;;;0.10;0.00;;;;;;;36.79;33.41;101686.22;5073534;28;20020;-71
2022/08/05 10:58:53;;;;;;;1.08;0.40;;;;;;;37.09;32.95;101700.47;5064146;28;20028;-71
2022/08/05 11:01:36;;;;;;;0.93;0.10;;;;;;;36.96;33.63;101701.28;5074021;28;20586;-71
2022/08/05 11:04:16;;;;;;;1.10;0.10;;;;;;;37.61;32.61;101711.94;5072033;28;20058;-71
2022/08/05 11:06:56;;;;;;;;;;;;;;;36.44;33.26;101709.72;5071922;28;20527;-72
2022/08/05 11:09:24;;;;;;;0.32;0.03;;;;;;;36.71;32.69;101716.38;5054274;28;20381;-72
2022/08/05 11:11:53;;;;;;;0.57;0.20;;;;;;;36.76;32.38;101722.59;5072113;28;20020;-72
2022/08/05 11:14:31;;;;;;;0.10;0.00;;;;;;;36.29;31.92;101726.50;5089648;28;20025;-72
2022/08/05 11:17:25;;;;;;;0.75;0.13;;;;;;;36.65;33.01;101718.41;5071607;28;20046;-71
2022/08/05 11:19:52;;;;;;;1.55;0.20;;;;;;;36.17;33.38;101710.50;5072937;28;20023;-72
2022/08/05 11:22:36;;;;;;;0.60;0.10;;;;;;;36.68;32.97;101733.50;5070801;28;20024;-71
2022/08/05 11:25:29;;;;;;;0.25;0.10;;;;;;;37.28;30.44;101749.00;5068251;28;20020;-72
2022/08/05 11:28:13;;;;;;;0.93;0.43;;;;;;;37.49;32.00;101752.13;5073715;28;20047;-72
2022/08/05 11:31:02;;;;;;;0.35;0.15;;;;;;;37.05;31.81;101768.19;5072532;28;20454;-72
2022/08/05 11:33:39;;;;;;;0.30;0.10;;;;;;;37.20;32.25;101770.66;5072427;28;20027;-72
2022/08/05 11:36:06;;;;;;;0.75;0.15;;;;;;;36.93;32.34;101765.94;5070841;28;20032;-72